Time;durP1;ratioP1;P1;durP2;ratioP2;P2;SDS_P1;SDS_P2;PMS_P1;PMS_P2;Temp;Humidity;BMP_temperature;BMP_pressure;BME280_temperature;BME280_humidity;BME280_pressure;Samples;Min_cycle;Max_cycle;Signal;HPM_P1;HPM_P2
2023/08/22 00:00:57;;;;;;;;;;;;;;;24.64;54.24;101658.13;3969829;29;20484;-67
2023/08/22 00:02:59;;;;;;;;;;;;;;;24.64;54.47;101660.88;3970258;29;20456;-67
2023/08/22 00:05:03;;;;;;;;;;;;;;;24.65;54.24;101661.72;3969907;29;20384;-67
2023/08/22 00:07:06;;;;;;;;;;;;;;;24.64;54.27;101651.78;3969451;29;20035;-67
2023/08/22 00:09:08;;;;;;;;;;;;;;;24.63;54.42;101652.84;3970854;29;20028;-67
2023/08/22 00:11:10;;;;;;;;;;;;;;;24.63;54.44;101655.63;3968646;29;20032;-67
2023/08/22 00:13:12;;;;;;;;;;;;;;;24.62;54.43;101653.94;3969705;29;20023;-66
2023/08/22 00:15:14;;;;;;;;;;;;;;;24.61;54.39;101650.34;3970303;29;20024;-65
2023/08/22 00:17:15;;;;;;;;;;;;;;;24.60;54.49;101653.34;3970074;29;20036;-66
2023/08/22 00:19:19;;;;;;;;;;;;;;;24.59;54.46;101659.94;3969397;29;19933;-66
2023/08/22 00:21:22;;;;;;;;;;;;;;;24.57;54.86;101656.59;3968894;29;19933;-66
2023/08/22 00:23:24;;;;;;;;;;;;;;;24.56;54.94;101657.66;3969063;29;20023;-67
2023/08/22 00:25:26;;;;;;;;;;;;;;;24.55;54.97;101654.06;3969844;29;20024;-67
2023/08/22 00:27:28;;;;;;;;;;;;;;;24.53;54.93;101656.25;3969312;29;20020;-66
2023/08/22 00:29:30;;;;;;;;;;;;;;;24.53;55.27;101661.78;3969424;29;20383;-68
2023/08/22 00:31:33;;;;;;;;;;;;;;;24.53;55.36;101664.53;3969389;29;20020;-67
2023/08/22 00:33:36;;;;;;;;;;;;;;;24.51;55.27;101663.91;3974784;29;20024;-67
2023/08/22 00:35:37;;;;;;;;;;;;;;;24.50;55.45;101653.97;3968788;29;20031;-67
2023/08/22 00:37:42;;;;;;;;;;;;;;;24.51;55.27;101649.28;3959102;29;20032;-67
2023/08/22 00:39:44;;;;;;;;;;;;;;;24.51;55.43;101647.34;3968724;29;20019;-66
2023/08/22 00:41:46;;;;;;;;;;;;;;;24.51;55.34;101650.13;3966525;29;19957;-66
2023/08/22 00:43:48;;;;;;;;;;;;;;;24.50;55.54;101645.69;3969157;29;20008;-66
2023/08/22 00:45:50;;;;;;;;;;;;;;;24.50;55.48;101653.13;3969097;29;19941;-66
2023/08/22 00:47:52;;;;;;;;;;;;;;;24.50;55.63;101647.59;3969179;29;20017;-66
2023/08/22 00:49:54;;;;;;;;;;;;;;;24.49;55.41;101638.50;3968831;29;20016;-66
2023/08/22 00:51:56;;;;;;;;;;;;;;;24.49;55.60;101640.41;3968279;29;20012;-66
2023/08/22 00:53:59;;;;;;;;;;;;;;;24.47;55.64;101644.25;3969639;29;19940;-66
2023/08/22 00:56:01;;;;;;;;;;;;;;;24.48;55.53;101634.03;3958830;29;20095;-66
2023/08/22 00:58:03;;;;;;;;;;;;;;;24.47;55.42;101637.91;3967672;29;20023;-66
2023/08/22 01:00:10;;;;;;;;;;;;;;;24.47;55.42;101637.91;3969046;29;20024;-66
2023/08/22 01:02:12;;;;;;;;;;;;;;;24.45;55.52;101629.88;3968509;29;19929;-66
2023/08/22 01:04:15;;;;;;;;;;;;;;;24.45;55.59;101629.03;3959032;29;20456;-67
2023/08/22 01:06:16;;;;;;;;;;;;;;;24.44;55.62;101630.13;3968489;29;20388;-67
2023/08/22 01:08:20;;;;;;;;;;;;;;;24.43;55.38;101632.03;3969851;29;20019;-67
2023/08/22 01:10:25;;;;;;;;;;;;;;;24.43;55.65;101628.44;3966138;29;20028;-67
2023/08/22 01:12:28;;;;;;;;;;;;;;;24.42;55.87;101624.84;3967288;29;20033;-67
2023/08/22 01:14:31;;;;;;;;;;;;;;;24.42;55.38;101629.50;3968823;29;20016;-66
2023/08/22 01:16:33;;;;;;;;;;;;;;;24.40;55.68;101632.53;3969381;29;20020;-67
2023/08/22 01:18:35;;;;;;;;;;;;;;;24.39;55.73;101627.25;3968559;29;20080;-67
2023/08/22 01:20:37;;;;;;;;;;;;;;;24.38;55.47;101629.19;3958608;29;20033;-67
2023/08/22 01:22:40;;;;;;;;;;;;;;;24.37;55.59;101633.03;3968287;29;19929;-67
2023/08/22 01:24:42;;;;;;;;;;;;;;;24.35;55.52;101624.16;3968843;29;20028;-67
2023/08/22 01:26:45;;;;;;;;;;;;;;;24.34;55.66;101619.75;3970850;29;20011;-67
2023/08/22 01:28:47;;;;;;;;;;;;;;;24.34;55.73;101614.22;3973632;29;20028;-67
2023/08/22 01:30:50;;;;;;;;;;;;;;;24.33;55.94;101623.56;3958281;29;20032;-67
2023/08/22 01:32:52;;;;;;;;;;;;;;;24.33;56.09;101625.50;3957946;29;20012;-67
2023/08/22 01:34:55;;;;;;;;;;;;;;;24.32;56.17;101630.16;3959235;29;20029;-67
2023/08/22 01:36:57;;;;;;;;;;;;;;;24.32;56.06;101612.78;3958546;29;20029;-67
2023/08/22 01:39:04;;;;;;;;;;;;;;;24.31;56.12;101623.00;3967473;29;20628;-67
2023/08/22 01:41:07;;;;;;;;;;;;;;;24.29;55.72;101625.16;3967914;29;20462;-67
2023/08/22 01:43:09;;;;;;;;;;;;;;;24.28;55.96;101623.50;3968374;29;20057;-67
2023/08/22 01:45:11;;;;;;;;;;;;;;;24.27;56.06;101613.53;3974058;29;20040;-67
2023/08/22 01:47:13;;;;;;;;;;;;;;;24.26;56.02;101607.19;3973854;29;20032;-67
2023/08/22 01:49:15;;;;;;;;;;;;;;;24.26;55.97;101614.59;3973723;29;20393;-67
2023/08/22 01:51:17;;;;;;;;;;;;;;;24.24;55.93;101616.78;3968136;29;20021;-67
2023/08/22 01:53:19;;;;;;;;;;;;;;;24.23;55.76;101615.94;3958663;29;20020;-67
2023/08/22 01:55:22;;;;;;;;;;;;;;;24.20;55.79;101610.94;3968504;29;20469;-67
2023/08/22 01:57:24;;;;;;;;;;;;;;;24.19;56.09;101611.16;3968108;29;20033;-67
2023/08/22 01:59:26;;;;;;;;;;;;;;;24.18;55.85;101609.47;3958530;29;20070;-67
2023/08/22 02:01:27;;;;;;;;;;;;;;;24.16;55.93;101606.16;3957738;29;20681;-67
2023/08/22 02:03:29;;;;;;;;;;;;;;;24.16;56.02;101609.72;3967920;29;19939;-67
2023/08/22 02:05:31;;;;;;;;;;;;;;;24.16;56.23;101608.91;3967896;29;20020;-67
2023/08/22 02:07:34;;;;;;;;;;;;;;;24.15;55.93;101607.22;3969499;29;20027;-67
2023/08/22 02:09:36;;;;;;;;;;;;;;;24.15;55.85;101612.75;3968688;29;20034;-66
2023/08/22 02:11:40;;;;;;;;;;;;;;;24.12;56.14;101611.31;3966346;29;20075;-67
2023/08/22 02:13:42;;;;;;;;;;;;;;;24.11;56.13;101601.38;3958700;30;20106;-67
2023/08/22 02:15:44;;;;;;;;;;;;;;;24.10;56.14;101592.22;3958377;29;20556;-67
2023/08/22 02:17:45;;;;;;;;;;;;;;;24.10;56.12;101592.22;3968213;29;20020;-67
2023/08/22 02:19:47;;;;;;;;;;;;;;;24.08;56.09;101591.66;3951493;29;19940;-67
2023/08/22 02:21:50;;;;;;;;;;;;;;;24.08;55.99;101590.81;3967494;29;20012;-67
2023/08/22 02:23:52;;;;;;;;;;;;;;;24.07;56.24;101595.47;3972712;29;20475;-67
2023/08/22 02:25:54;;;;;;;;;;;;;;;24.06;56.30;101601.25;3968963;29;20049;-66
2023/08/22 02:27:57;;;;;;;;;;;;;;;24.06;56.12;101595.72;3968762;29;20029;-67
2023/08/22 02:30:00;;;;;;;;;;;;;;;24.05;56.24;101602.34;3972518;29;20023;-67
2023/08/22 02:32:02;;;;;;;;;;;;;;;24.02;56.13;101603.66;3966040;29;20044;-67
2023/08/22 02:34:04;;;;;;;;;;;;;;;24.00;56.16;101596.75;3968068;29;20028;-67
2023/08/22 02:36:08;;;;;;;;;;;;;;;23.99;56.38;101597.81;3965389;29;20371;-66
2023/08/22 02:38:10;;;;;;;;;;;;;;;23.97;56.61;101588.97;3967104;29;20020;-67
2023/08/22 02:40:12;;;;;;;;;;;;;;;23.96;56.36;101590.03;3967931;29;20036;-67
2023/08/22 02:42:14;;;;;;;;;;;;;;;23.95;56.37;101586.44;3967990;29;20017;-66
2023/08/22 02:44:17;;;;;;;;;;;;;;;23.94;56.43;101587.53;3958465;30;19930;-67
2023/08/22 02:46:19;;;;;;;;;;;;;;;23.93;56.47;101594.09;3967761;29;20040;-67
2023/08/22 02:48:21;;;;;;;;;;;;;;;23.93;56.53;101591.34;3981531;29;20023;-67
2023/08/22 02:50:24;;;;;;;;;;;;;;;23.90;56.38;101584.41;3987934;29;20060;-67
2023/08/22 02:52:26;;;;;;;;;;;;;;;23.90;56.61;101586.31;3967669;29;20011;-67
2023/08/22 02:54:28;;;;;;;;;;;;;;;23.89;56.59;101585.50;3967741;29;20020;-67
2023/08/22 02:56:30;;;;;;;;;;;;;;;23.87;56.76;101586.81;3967992;29;20025;-66
2023/08/22 02:58:32;;;;;;;;;;;;;;;23.87;56.91;101590.44;3957852;29;20028;-67
2023/08/22 03:00:35;;;;;;;;;;;;;;;23.86;56.88;101582.41;3968793;29;20116;-67
2023/08/22 03:02:37;;;;;;;;;;;;;;;23.86;56.69;101576.88;3967388;29;20037;-67
2023/08/22 03:04:39;;;;;;;;;;;;;;;23.86;56.80;101571.38;3957741;29;19934;-67
2023/08/22 03:06:41;;;;;;;;;;;;;;;23.84;56.39;101581.78;3957686;29;20025;-67
2023/08/22 03:08:42;;;;;;;;;;;;;;;23.82;56.63;101575.66;3966388;29;20032;-67
2023/08/22 03:10:44;;;;;;;;;;;;;;;23.81;56.54;101573.97;3967800;29;19933;-66
2023/08/22 03:12:46;;;;;;;;;;;;;;;23.80;56.67;101575.06;3966164;29;20020;-67
2023/08/22 03:14:50;;;;;;;;;;;;;;;23.79;56.49;101570.63;3966358;29;20044;-67
2023/08/22 03:16:53;;;;;;;;;;;;;;;23.78;56.49;101577.22;3972906;29;20037;-66
2023/08/22 03:18:57;;;;;;;;;;;;;;;23.75;56.56;101573.88;3969178;29;20039;-67
2023/08/22 03:20:59;;;;;;;;;;;;;;;23.75;56.60;101567.53;3972469;29;20015;-67
2023/08/22 03:23:04;;;;;;;;;;;;;;;23.74;56.81;101568.59;3983963;29;20020;-66
2023/08/22 03:25:06;;;;;;;;;;;;;;;23.71;56.72;101567.16;3983754;29;20591;-67
2023/08/22 03:27:10;;;;;;;;;;;;;;;23.69;56.58;101566.59;3990221;29;20640;-66
2023/08/22 03:29:13;;;;;;;;;;;;;;;23.69;56.45;101568.50;3983407;29;20066;-66
2023/08/22 03:31:15;;;;;;;;;;;;;;;23.67;56.63;101567.94;3983457;29;20024;-67
2023/08/22 03:33:19;;;;;;;;;;;;;;;23.66;56.79;101569.81;3989958;29;20027;-67
2023/08/22 03:35:21;;;;;;;;;;;;;;;23.66;56.98;101566.25;3989612;29;20471;-67
2023/08/22 03:37:23;;;;;;;;;;;;;;;23.65;56.53;101567.31;3989881;29;20020;-67
2023/08/22 03:39:25;;;;;;;;;;;;;;;23.63;56.68;101572.25;3975366;29;20028;-67
2023/08/22 03:41:27;;;;;;;;;;;;;;;23.62;56.75;101582.44;3970421;29;20019;-67
2023/08/22 03:43:33;;;;;;;;;;;;;;;23.61;56.87;101582.69;3983655;29;20411;-67
2023/08/22 03:45:37;;;;;;;;;;;;;;;23.61;56.67;101571.66;3983671;29;20015;-67
2023/08/22 03:47:39;;;;;;;;;;;;;;;23.60;56.69;101570.81;3983371;29;20024;-67
2023/08/22 03:49:41;;;;;;;;;;;;;;;23.60;56.54;101573.56;3969886;29;20020;-67
2023/08/22 03:51:43;;;;;;;;;;;;;;;23.60;56.45;101570.81;3967392;29;20021;-67
2023/08/22 03:53:46;;;;;;;;;;;;;;;23.56;56.64;101564.94;3968312;29;20459;-67
2023/08/22 03:55:48;;;;;;;;;;;;;;;23.56;56.53;101551.16;3968569;29;20020;-67
2023/08/22 03:57:50;;;;;;;;;;;;;;;23.54;56.62;101550.59;3970269;29;20028;-67
2023/08/22 03:59:53;;;;;;;;;;;;;;;23.53;56.77;101550.81;3969792;29;20055;-67
2023/08/22 04:01:55;;;;;;;;;;;;;;;23.52;56.56;101547.22;3970390;29;20024;-67
2023/08/22 04:03:57;;;;;;;;;;;;;;;23.50;56.83;101546.63;3969032;29;20445;-67
2023/08/22 04:06:03;;;;;;;;;;;;;;;23.50;56.65;101543.03;3967313;29;20370;-67
2023/08/22 04:08:05;;;;;;;;;;;;;;;23.48;56.56;101542.44;3959704;29;20028;-67
2023/08/22 04:10:08;;;;;;;;;;;;;;;23.47;56.48;101538.00;3974678;29;20016;-67
2023/08/22 04:12:10;;;;;;;;;;;;;;;23.46;56.79;101536.34;3959202;29;20578;-67
2023/08/22 04:14:12;;;;;;;;;;;;;;;23.44;56.69;101544.00;3967685;29;20044;-67
2023/08/22 04:16:14;;;;;;;;;;;;;;;23.43;56.63;101547.84;3959244;29;20024;-67
2023/08/22 04:18:16;;;;;;;;;;;;;;;23.42;56.84;101543.41;3959043;29;20024;-67
2023/08/22 04:20:18;;;;;;;;;;;;;;;23.41;56.58;101544.50;3957846;29;20111;-67
2023/08/22 04:22:21;;;;;;;;;;;;;;;23.39;56.49;101545.56;3959887;29;20558;-67
2023/08/22 04:24:23;;;;;;;;;;;;;;;23.40;56.67;101535.38;3968355;29;20378;-67
2023/08/22 04:26:26;;;;;;;;;;;;;;;23.38;56.67;101524.59;3967475;29;20443;-67
2023/08/22 04:28:28;;;;;;;;;;;;;;;23.36;56.48;101532.28;3969798;29;20023;-67
2023/08/22 04:30:30;;;;;;;;;;;;;;;23.35;56.72;101529.75;3959556;29;20020;-67
2023/08/22 04:32:32;;;;;;;;;;;;;;;23.35;56.90;101529.75;3959402;29;20028;-67
2023/08/22 04:34:35;;;;;;;;;;;;;;;23.34;56.60;101526.19;3953438;29;20025;-67
2023/08/22 04:36:40;;;;;;;;;;;;;;;23.33;56.74;101524.50;3964159;29;20028;-67
2023/08/22 04:38:44;;;;;;;;;;;;;;;23.34;56.63;101536.38;3968269;29;20024;-67
2023/08/22 04:40:46;;;;;;;;;;;;;;;23.34;56.77;101541.88;3969489;29;20020;-67
2023/08/22 04:43:08;;;;;;;;;;;;;;;23.34;56.73;101539.13;3973245;29;20504;-66
2023/08/22 04:45:11;;;;;;;;;;;;;;;23.33;56.34;101523.66;3967568;29;20079;-66
2023/08/22 04:47:13;;;;;;;;;;;;;;;23.34;56.19;101531.69;3967254;29;20015;-66
2023/08/22 04:49:15;;;;;;;;;;;;;;;23.33;56.12;101515.41;3969800;29;20020;-66
2023/08/22 04:51:17;;;;;;;;;;;;;;;23.33;55.94;101523.66;3959109;29;20032;-67
2023/08/22 04:53:19;;;;;;;;;;;;;;;23.31;56.08;101523.91;3959132;29;20032;-66
2023/08/22 04:55:23;;;;;;;;;;;;;;;23.30;56.11;101511.19;3953066;29;20047;-67
2023/08/22 04:57:26;;;;;;;;;;;;;;;23.30;55.95;101510.38;3971001;29;20361;-67
2023/08/22 04:59:28;;;;;;;;;;;;;;;23.29;55.94;101512.31;3970087;29;20019;-67
2023/08/22 05:01:31;;;;;;;;;;;;;;;23.28;56.09;101507.84;3968263;29;20040;-67
2023/08/22 05:03:34;;;;;;;;;;;;;;;23.29;56.47;101515.06;3968009;29;20560;-67
2023/08/22 05:05:36;;;;;;;;;;;;;;;23.27;55.71;101503.41;3965673;29;20025;-67
2023/08/22 05:07:38;;;;;;;;;;;;;;;23.27;56.33;101511.69;3969279;29;19963;-67
2023/08/22 05:09:41;;;;;;;;;;;;;;;23.26;56.56;101512.78;3957410;29;20224;-67
2023/08/22 05:11:44;;;;;;;;;;;;;;;23.28;56.13;101504.28;3969370;29;20024;-67
2023/08/22 05:13:48;;;;;;;;;;;;;;;23.26;56.23;101504.53;3958442;29;20032;-68
2023/08/22 05:15:50;;;;;;;;;;;;;;;23.27;56.37;101497.91;3969620;29;20000;-68
2023/08/22 05:17:52;;;;;;;;;;;;;;;23.27;56.26;101499.84;3969930;29;20024;-67
2023/08/22 05:19:55;;;;;;;;;;;;;;;23.27;56.23;101505.34;3957800;29;20031;-67
2023/08/22 05:21:58;;;;;;;;;;;;;;;23.26;56.13;101514.69;3958172;29;20078;-67
2023/08/22 05:24:00;;;;;;;;;;;;;;;23.26;56.31;101501.75;3958211;29;20024;-66
2023/08/22 05:26:03;;;;;;;;;;;;;;;23.26;56.50;101507.28;3967141;29;20012;-67
2023/08/22 05:28:10;;;;;;;;;;;;;;;23.26;56.42;101499.00;3967698;29;19940;-66
2023/08/22 05:30:13;;;;;;;;;;;;;;;23.26;56.16;101490.75;3966342;29;20037;-66
2023/08/22 05:32:15;;;;;;;;;;;;;;;23.27;56.22;101492.41;3982796;29;20016;-67
2023/08/22 05:34:17;;;;;;;;;;;;;;;23.28;56.30;101496.84;3973094;29;20345;-66
2023/08/22 05:36:19;;;;;;;;;;;;;;;23.28;56.28;101488.56;3982345;29;20020;-67
2023/08/22 05:38:21;;;;;;;;;;;;;;;23.28;56.21;101494.09;3968349;29;20032;-67
2023/08/22 05:40:23;;;;;;;;;;;;;;;23.29;56.31;101498.53;3954196;29;20925;-67
2023/08/22 05:42:26;;;;;;;;;;;;;;;23.29;56.15;101500.41;3957906;29;20092;-67
2023/08/22 05:44:32;;;;;;;;;;;;;;;23.29;56.16;101498.53;3972778;29;20004;-66
2023/08/22 05:46:34;;;;;;;;;;;;;;;23.29;55.83;101501.28;3966702;29;20033;-67
2023/08/22 05:48:37;;;;;;;;;;;;;;;23.30;56.11;101496.59;3971096;29;20365;-66
2023/08/22 05:50:39;;;;;;;;;;;;;;;23.30;56.06;101497.41;3964937;29;20020;-66
2023/08/22 05:52:40;;;;;;;;;;;;;;;23.29;55.44;101489.41;3964700;29;20024;-67
2023/08/22 05:54:43;;;;;;;;;;;;;;;23.28;55.91;101488.56;3966617;29;19929;-67
2023/08/22 05:56:46;;;;;;;;;;;;;;;23.29;56.00;101495.75;3968410;29;20019;-66
2023/08/22 05:58:48;;;;;;;;;;;;;;;23.30;56.14;101497.41;3967755;29;20020;-67
2023/08/22 06:00:51;;;;;;;;;;;;;;;23.30;55.79;101496.59;3973281;29;20041;-67
2023/08/22 06:02:54;;;;;;;;;;;;;;;23.30;55.81;101502.94;3957861;29;20429;-67
2023/08/22 06:04:57;;;;;;;;;;;;;;;23.31;56.04;101498.28;3958543;29;20377;-67
2023/08/22 06:06:59;;;;;;;;;;;;;;;23.32;55.70;101500.78;3967755;29;20361;-67
2023/08/22 06:09:04;;;;;;;;;;;;;;;23.33;55.51;101507.97;3967256;29;19976;-67
2023/08/22 06:11:09;;;;;;;;;;;;;;;23.34;55.82;101501.38;3957908;29;20040;-66
2023/08/22 06:13:11;;;;;;;;;;;;;;;23.36;55.72;101503.88;3968508;29;20028;-66
2023/08/22 06:15:15;;;;;;;;;;;;;;;23.38;55.80;101510.81;3973308;29;20037;-68
2023/08/22 06:17:18;;;;;;;;;;;;;;;23.40;55.54;101510.56;3972792;29;20016;-67
2023/08/22 06:19:20;;;;;;;;;;;;;;;23.38;55.70;101508.06;3964443;29;20032;-66
2023/08/22 06:21:22;;;;;;;;;;;;;;;23.43;55.60;101517.53;3949637;29;20040;-67
2023/08/22 06:23:24;;;;;;;;;;;;;;;23.44;55.64;101513.69;3966927;29;20019;-67
2023/08/22 06:25:26;;;;;;;;;;;;;;;23.45;55.60;101507.06;3967727;29;20040;-67
2023/08/22 06:27:28;;;;;;;;;;;;;;;23.47;55.88;101505.75;3972755;29;20032;-67
2023/08/22 06:29:32;;;;;;;;;;;;;;;23.48;55.63;101504.69;3966142;29;20413;-67
2023/08/22 06:31:34;;;;;;;;;;;;;;;23.49;55.84;101508.28;3951932;29;20029;-67
2023/08/22 06:33:37;;;;;;;;;;;;;;;23.51;55.60;101512.47;3967341;29;20036;-66
2023/08/22 06:35:40;;;;;;;;;;;;;;;23.52;55.61;101507.78;3972807;29;20036;-66
2023/08/22 06:37:42;;;;;;;;;;;;;;;23.52;55.47;101503.09;3968432;29;20021;-66
2023/08/22 06:39:44;;;;;;;;;;;;;;;23.53;55.49;101502.03;3968391;29;20045;-67
2023/08/22 06:41:46;;;;;;;;;;;;;;;23.53;55.17;101495.69;3968201;29;20031;-67
2023/08/22 06:43:48;;;;;;;;;;;;;;;23.54;55.49;101489.94;3965397;29;20032;-67
2023/08/22 06:45:56;;;;;;;;;;;;;;;23.54;55.14;101484.41;3965674;29;20031;-67
2023/08/22 06:47:58;;;;;;;;;;;;;;;23.55;55.40;101480.56;3970714;29;20028;-67
2023/08/22 06:50:03;;;;;;;;;;;;;;;23.57;55.40;101481.16;3966824;29;20028;-67
2023/08/22 06:52:05;;;;;;;;;;;;;;;23.61;55.27;101486.19;3970391;29;20374;-67
2023/08/22 06:54:08;;;;;;;;;;;;;;;23.63;55.24;101481.25;3970637;29;20032;-67
2023/08/22 06:56:10;;;;;;;;;;;;;;;23.63;55.35;101470.22;3970730;29;20016;-67
2023/08/22 06:58:12;;;;;;;;;;;;;;;23.65;55.32;101471.66;3970137;29;20028;-67
2023/08/22 07:00:16;;;;;;;;;;;;;;;23.68;55.34;101470.31;3970101;29;20374;-67
2023/08/22 07:02:17;;;;;;;;;;;;;;;23.69;55.19;101477.50;3971907;29;20024;-67
2023/08/22 07:04:19;;;;;;;;;;;;;;;23.67;55.05;101475.00;3970670;29;20425;-67
2023/08/22 07:06:23;;;;;;;;;;;;;;;23.72;55.01;101477.00;3970107;29;20021;-67
2023/08/22 07:08:25;;;;;;;;;;;;;;;23.73;54.78;101481.44;3970950;29;20024;-67
2023/08/22 07:10:27;;;;;;;;;;;;;;;23.77;55.02;101490.06;3970731;29;19933;-67
2023/08/22 07:12:30;;;;;;;;;;;;;;;23.79;55.32;101487.88;3971027;29;20025;-67
2023/08/22 07:14:32;;;;;;;;;;;;;;;23.81;55.02;101485.72;3970464;29;20048;-67
2023/08/22 07:16:34;;;;;;;;;;;;;;;23.84;55.04;101476.97;3970597;29;20028;-67
2023/08/22 07:18:35;;;;;;;;;;;;;;;23.86;55.03;101483.94;3970005;29;20033;-67
2023/08/22 07:20:37;;;;;;;;;;;;;;;23.90;54.73;101481.50;3970739;29;20422;-67
2023/08/22 07:22:41;;;;;;;;;;;;;;;23.91;54.56;101477.66;3969611;29;20027;-67
2023/08/22 07:24:43;;;;;;;;;;;;;;;23.94;54.43;101477.16;3969933;29;20350;-67
2023/08/22 07:26:45;;;;;;;;;;;;;;;23.97;54.46;101484.94;3969440;29;20017;-67
2023/08/22 07:28:47;;;;;;;;;;;;;;;23.99;54.21;101479.19;3970727;29;20020;-67
2023/08/22 07:30:49;;;;;;;;;;;;;;;24.01;54.59;101475.09;3969817;29;20488;-67
2023/08/22 07:32:51;;;;;;;;;;;;;;;24.04;53.80;101457.19;3969953;29;20064;-67
2023/08/22 07:34:52;;;;;;;;;;;;;;;24.05;53.93;101462.47;3970298;29;20016;-67
2023/08/22 07:36:54;;;;;;;;;;;;;;;24.08;54.00;101461.13;3971965;29;20024;-67
2023/08/22 07:38:58;;;;;;;;;;;;;;;24.09;54.16;101460.88;3970293;29;20008;-66
2023/08/22 07:41:00;;;;;;;;;;;;;;;24.12;53.92;101459.53;3970045;29;20032;-66
2023/08/22 07:43:01;;;;;;;;;;;;;;;24.15;53.62;101458.19;3969703;29;20051;-67
2023/08/22 07:45:04;;;;;;;;;;;;;;;24.18;53.42;101465.97;3969795;29;19980;-67
2023/08/22 07:47:05;;;;;;;;;;;;;;;24.21;53.74;101471.00;3969852;29;20385;-66
2023/08/22 07:49:07;;;;;;;;;;;;;;;24.22;53.86;101465.22;3969860;29;20028;-66
2023/08/22 07:51:09;;;;;;;;;;;;;;;24.24;53.68;101467.72;3968858;29;20291;-66
2023/08/22 07:53:12;;;;;;;;;;;;;;;24.26;53.72;101469.16;3959658;29;19994;-66
2023/08/22 07:55:15;;;;;;;;;;;;;;;24.28;53.29;101463.41;3970229;29;20021;-66
2023/08/22 07:57:18;;;;;;;;;;;;;;;24.31;53.64;101467.56;3968776;29;20021;-66
2023/08/22 07:59:20;;;;;;;;;;;;;;;24.33;53.66;101468.16;3969203;29;20020;-66
2023/08/22 08:01:22;;;;;;;;;;;;;;;24.33;53.19;101455.19;3969421;29;20373;-67
2023/08/22 08:03:23;;;;;;;;;;;;;;;24.36;52.97;101451.09;3969550;29;20027;-67
2023/08/22 08:05:26;;;;;;;;;;;;;;;24.36;53.27;101449.16;3970088;29;19964;-67
2023/08/22 08:07:28;;;;;;;;;;;;;;;24.36;53.16;101446.41;3969619;29;20048;-67
2023/08/22 08:09:30;;;;;;;;;;;;;;;24.38;52.86;101446.16;3970151;29;20027;-68
2023/08/22 08:11:33;;;;;;;;;;;;;;;24.39;52.84;101448.66;3968869;29;20405;-67
2023/08/22 08:13:35;;;;;;;;;;;;;;;24.41;52.89;101434.59;3969588;29;20024;-67
2023/08/22 08:15:37;;;;;;;;;;;;;;;24.42;53.17;101439.88;3969384;29;20020;-67
2023/08/22 08:17:39;;;;;;;;;;;;;;;24.44;52.96;101434.09;3968965;29;20024;-67
2023/08/22 08:19:41;;;;;;;;;;;;;;;24.46;52.52;101445.72;3969142;29;20039;-68
2023/08/22 08:21:43;;;;;;;;;;;;;;;24.48;53.17;101443.53;3969766;29;20367;-67
2023/08/22 08:23:45;;;;;;;;;;;;;;;24.51;53.08;101448.53;3969135;29;20028;-67
2023/08/22 08:25:48;;;;;;;;;;;;;;;24.53;52.87;101446.38;3969249;29;20020;-67
2023/08/22 08:27:52;;;;;;;;;;;;;;;24.55;52.86;101446.13;3959315;29;20024;-67
2023/08/22 08:29:54;;;;;;;;;;;;;;;24.55;53.03;101438.69;3968883;29;20012;-67
2023/08/22 08:31:56;;;;;;;;;;;;;;;24.59;52.94;101447.31;3969029;29;20385;-67
2023/08/22 08:33:58;;;;;;;;;;;;;;;24.61;53.12;101450.66;3969754;29;20015;-67
2023/08/22 08:36:00;;;;;;;;;;;;;;;24.63;53.12;101445.72;3968739;29;20452;-67
2023/08/22 08:38:02;;;;;;;;;;;;;;;24.66;52.93;101441.63;3969393;29;20044;-67
2023/08/22 08:40:07;;;;;;;;;;;;;;;24.67;52.93;101446.91;3969117;29;20016;-67
2023/08/22 08:42:11;;;;;;;;;;;;;;;24.69;53.32;101439.19;3969078;29;20016;-67
2023/08/22 08:44:14;;;;;;;;;;;;;;;24.73;52.99;101432.03;3970709;29;20025;-67
2023/08/22 08:46:16;;;;;;;;;;;;;;;24.76;53.50;101433.47;3969833;29;20032;-67
2023/08/22 08:48:19;;;;;;;;;;;;;;;24.79;53.40;101444.00;3968636;29;20028;-67
2023/08/22 08:50:21;;;;;;;;;;;;;;;24.81;52.94;101434.38;3968944;29;20024;-67
2023/08/22 08:52:23;;;;;;;;;;;;;;;24.83;53.29;101423.91;3974532;29;19940;-67
2023/08/22 08:54:25;;;;;;;;;;;;;;;24.88;52.89;101427.84;3968716;29;20008;-67
2023/08/22 08:56:27;;;;;;;;;;;;;;;24.89;52.93;101423.97;3968959;29;20023;-67
2023/08/22 08:58:29;;;;;;;;;;;;;;;24.91;52.92;101413.50;3968926;29;20353;-67
2023/08/22 09:00:32;;;;;;;;;;;;;;;24.93;53.16;101414.91;3968527;29;20024;-67
2023/08/22 09:02:35;;;;;;;;;;;;;;;24.95;53.19;101403.59;3969961;29;20021;-67
2023/08/22 09:04:38;;;;;;;;;;;;;;;24.97;52.91;101405.00;3969013;29;20056;-68
2023/08/22 09:06:40;;;;;;;;;;;;;;;24.99;53.30;101405.59;3969108;29;20106;-67
2023/08/22 09:08:43;;;;;;;;;;;;;;;25.02;53.39;101407.00;3969626;29;20078;-67
2023/08/22 09:10:48;;;;;;;;;;;;;;;25.05;52.96;101411.16;3968024;29;20028;-67
2023/08/22 09:12:50;;;;;;;;;;;;;;;25.09;53.38;101420.63;3968335;29;20024;-67
2023/08/22 09:14:52;;;;;;;;;;;;;;;25.11;53.29;101422.03;3967339;29;20036;-67
2023/08/22 09:16:59;;;;;;;;;;;;;;;25.14;53.19;101421.53;3968153;29;20012;-67
2023/08/22 09:19:01;;;;;;;;;;;;;;;25.17;52.98;101411.88;3968919;29;20460;-67
2023/08/22 09:21:02;;;;;;;;;;;;;;;25.20;53.17;101419.63;3968470;29;20016;-67
2023/08/22 09:23:04;;;;;;;;;;;;;;;25.23;53.07;101419.13;3968165;29;20056;-67
2023/08/22 09:25:07;;;;;;;;;;;;;;;25.25;52.63;101411.44;3968601;29;20045;-67
2023/08/22 09:27:09;;;;;;;;;;;;;;;25.27;52.94;101406.47;3968783;29;20024;-68
2023/08/22 09:29:11;;;;;;;;;;;;;;;25.29;52.74;101411.75;3967964;29;20726;-68
2023/08/22 09:31:21;;;;;;;;;;;;;;;25.32;52.63;101409.31;3969238;29;20012;-68
2023/08/22 09:33:24;;;;;;;;;;;;;;;25.35;52.69;101416.25;3969540;29;19979;-67
2023/08/22 09:35:30;;;;;;;;;;;;;;;25.36;52.48;101404.94;3968285;29;20387;-67
2023/08/22 09:37:32;;;;;;;;;;;;;;;25.39;52.55;101397.22;3968288;29;20027;-67
2023/08/22 09:39:36;;;;;;;;;;;;;;;25.42;52.62;101407.75;3968879;29;19972;-67
2023/08/22 09:41:37;;;;;;;;;;;;;;;25.42;51.78;101408.56;3968289;29;20032;-67
2023/08/22 09:43:41;;;;;;;;;;;;;;;25.45;52.23;101410.00;3968017;29;19929;-67
2023/08/22 09:45:43;;;;;;;;;;;;;;;25.46;52.28;101406.97;3967890;29;20036;-67
2023/08/22 09:47:45;;;;;;;;;;;;;;;25.48;52.66;101409.47;3967532;29;20069;-67
2023/08/22 09:49:49;;;;;;;;;;;;;;;25.49;52.65;101395.38;3968168;29;20029;-67
2023/08/22 09:51:53;;;;;;;;;;;;;;;25.51;52.32;101390.41;3951705;29;20107;-67
2023/08/22 09:53:59;;;;;;;;;;;;;;;25.54;52.49;101376.06;3968055;29;19929;-67
2023/08/22 09:56:01;;;;;;;;;;;;;;;25.56;52.52;101372.22;3965864;29;19992;-67
2023/08/22 09:58:03;;;;;;;;;;;;;;;25.59;52.24;101372.50;3967887;29;20016;-67
2023/08/22 10:00:10;;;;;;;;;;;;;;;25.62;52.25;101376.69;3968364;29;20469;-67
2023/08/22 10:02:21;;;;;;;;;;;;;;;25.64;52.38;101383.66;3968580;29;20288;-68
2023/08/22 10:04:23;;;;;;;;;;;;;;;25.67;52.03;101383.13;3968245;29;20020;-66
2023/08/22 10:06:28;;;;;;;;;;;;;;;25.71;51.85;101388.94;3967988;29;20017;-66
2023/08/22 10:08:30;;;;;;;;;;;;;;;25.73;51.80;101384.81;3968447;29;20026;-66
2023/08/22 10:10:32;;;;;;;;;;;;;;;25.77;52.21;101374.06;3967339;29;20033;-66
2023/08/22 10:12:34;;;;;;;;;;;;;;;25.80;52.01;101369.91;3968012;29;20016;-67
2023/08/22 10:14:37;;;;;;;;;;;;;;;25.82;51.55;101379.63;3967840;29;20385;-67
2023/08/22 10:16:39;;;;;;;;;;;;;;;25.85;51.32;101375.53;3967457;29;20031;-67
2023/08/22 10:18:42;;;;;;;;;;;;;;;25.87;51.09;101374.13;3967585;29;20608;-67
2023/08/22 10:20:44;;;;;;;;;;;;;;;25.90;51.78;101372.78;3967796;29;20024;-67
2023/08/22 10:22:47;;;;;;;;;;;;;;;25.91;51.61;101374.47;3967542;29;20406;-67
2023/08/22 10:24:49;;;;;;;;;;;;;;;25.93;51.65;101374.19;3967276;29;20374;-67
2023/08/22 10:26:58;;;;;;;;;;;;;;;25.93;50.99;101376.97;3970926;29;20020;-67
2023/08/22 10:29:12;;;;;;;;;;;;;;;25.96;51.00;101379.19;3971117;29;20021;-67